Time;durP1;ratioP1;P1;durP2;ratioP2;P2;SDS_P1;SDS_P2;PMS_P1;PMS_P2;Temp;Humidity;BMP_temperature;BMP_pressure;BME280_temperature;BME280_humidity;BME280_pressure;Samples;Min_cycle;Max_cycle;Signal;HPM_P1;HPM_P2
2022/09/25 00:00:11;;;;;;;11.30;4.78;;;11.00;99.90;;;;;;5075573;28;20020;-68
2022/09/25 00:02:36;;;;;;;17.85;6.15;;;11.10;99.90;;;;;;5075229;28;20361;-68
2022/09/25 00:05:02;;;;;;;13.02;6.97;;;11.10;99.90;;;;;;5075119;28;20025;-68
2022/09/25 00:07:28;;;;;;;18.77;5.50;;;11.10;99.90;;;;;;5074566;28;20025;-68
2022/09/25 00:09:53;;;;;;;20.02;5.47;;;11.10;99.90;;;;;;5074785;28;20538;-67
2022/09/25 00:12:19;;;;;;;13.15;5.90;;;11.10;99.90;;;;;;5075110;28;20073;-67
2022/09/25 00:14:49;;;;;;;13.38;5.53;;;11.10;99.90;;;;;;5074415;28;20024;-68
2022/09/25 00:17:14;;;;;;;20.48;6.55;;;11.10;99.90;;;;;;5075206;28;20475;-68
2022/09/25 00:19:49;;;;;;;14.48;6.03;;;11.10;99.90;;;;;;5074860;28;20026;-68
2022/09/25 00:22:22;;;;;;;16.30;5.90;;;11.10;99.90;;;;;;5074925;28;20081;-68
2022/09/25 00:24:48;;;;;;;18.55;5.75;;;11.10;99.90;;;;;;5074460;28;20025;-68
2022/09/25 00:27:14;;;;;;;12.25;5.57;;;11.10;99.90;;;;;;5074840;28;20044;-67
2022/09/25 00:29:40;;;;;;;11.48;5.35;;;11.10;99.90;;;;;;5074985;28;20032;-67
2022/09/25 00:32:08;;;;;;;10.75;4.95;;;11.20;99.90;;;;;;5074828;28;20029;-68
2022/09/25 00:34:33;;;;;;;11.15;5.18;;;11.20;99.90;;;;;;5074025;28;20037;-68
2022/09/25 00:36:59;;;;;;;11.48;4.78;;;11.20;99.90;;;;;;5074471;28;20024;-68
2022/09/25 00:39:25;;;;;;;18.33;5.18;;;11.20;99.90;;;;;;5074467;28;20464;-68
2022/09/25 00:41:51;;;;;;;10.02;5.68;;;11.20;99.90;;;;;;5074440;28;20025;-68
2022/09/25 00:44:42;;;;;;;13.70;4.65;;;11.20;99.90;;;;;;5074408;28;20033;-68
2022/09/25 00:47:09;;;;;;;9.38;4.97;;;11.20;99.90;;;;;;5073717;28;20030;-68
2022/09/25 00:49:35;;;;;;;20.55;5.82;;;11.10;99.90;;;;;;5074417;28;20043;-67
2022/09/25 00:52:07;;;;;;;11.55;5.75;;;11.20;99.90;;;;;;5074082;28;20365;-68
2022/09/25 00:54:53;;;;;;;15.20;5.53;;;11.20;99.90;;;;;;5073987;28;20032;-68
2022/09/25 00:57:25;;;;;;;11.80;6.07;;;11.20;99.90;;;;;;5073865;28;20023;-68
2022/09/25 00:59:56;;;;;;;12.27;5.10;;;11.10;99.90;;;;;;5073432;28;20082;-68
2022/09/25 01:02:30;;;;;;;13.05;5.93;;;11.10;99.90;;;;;;5074119;28;20020;-68
2022/09/25 01:05:00;;;;;;;13.60;5.72;;;11.10;99.90;;;;;;5073969;28;20021;-68
2022/09/25 01:07:26;;;;;;;14.63;5.47;;;11.10;99.90;;;;;;5074222;28;20059;-68
2022/09/25 01:09:53;;;;;;;20.23;6.43;;;11.10;99.90;;;;;;5073396;28;20059;-68
2022/09/25 01:12:19;;;;;;;20.58;6.20;;;11.10;99.90;;;;;;5074212;28;20103;-68
2022/09/25 01:14:45;;;;;;;17.45;6.15;;;11.10;99.90;;;;;;5073994;28;20107;-68
2022/09/25 01:17:39;;;;;;;11.50;5.65;;;11.00;99.90;;;;;;5073511;28;20056;-67
2022/09/25 01:20:05;;;;;;;;;;;11.00;99.90;;;;;;5051982;28;20128;-68
2022/09/25 01:22:58;;;;;;;13.23;5.47;;;11.00;99.90;;;;;;5074008;28;19983;-68
2022/09/25 01:25:56;;;;;;;11.23;5.80;;;11.00;99.90;;;;;;5073559;28;20032;-67
2022/09/25 01:28:48;;;;;;;17.13;6.82;;;10.90;99.90;;;;;;5073392;28;20029;-68
2022/09/25 01:31:53;;;;;;;11.35;6.10;;;10.90;99.90;;;;;;5073926;28;20017;-68
2022/09/25 01:34:28;;;;;;;12.95;6.50;;;10.80;99.90;;;;;;5070387;28;20044;-68
2022/09/25 01:37:05;;;;;;;12.15;6.45;;;10.80;99.90;;;;;;5073488;28;20024;-68
2022/09/25 01:39:37;;;;;;;14.25;7.07;;;10.80;99.90;;;;;;5073828;28;20025;-68
2022/09/25 01:42:15;;;;;;;16.40;7.72;;;10.80;99.90;;;;;;5073186;28;20032;-68
2022/09/25 01:45:02;;;;;;;12.27;6.15;;;10.80;99.90;;;;;;5073761;28;20099;-68
2022/09/25 01:47:31;;;;;;;15.82;7.30;;;10.80;99.90;;;;;;5073488;28;20043;-68
2022/09/25 01:50:00;;;;;;;16.05;7.57;;;10.80;99.90;;;;;;5073444;28;20075;-68
2022/09/25 01:52:40;;;;;;;15.45;7.13;;;10.70;99.90;;;;;;5072905;28;20048;-68
2022/09/25 01:55:19;;;;;;;16.20;7.82;;;10.70;99.90;;;;;;5073193;28;20029;-68
2022/09/25 01:58:09;;;;;;;14.35;7.60;;;10.70;99.90;;;;;;5073635;28;20021;-68
2022/09/25 02:00:41;;;;;;;17.92;9.50;;;10.70;99.90;;;;;;5064009;28;20082;-68
2022/09/25 02:03:21;;;;;;;19.02;8.13;;;10.70;99.90;;;;;;5073500;28;20028;-69
2022/09/25 02:05:54;;;;;;;13.00;8.38;;;10.70;99.90;;;;;;5073240;28;20025;-69
2022/09/25 02:08:34;;;;;;;22.67;9.13;;;10.70;99.90;;;;;;5073587;28;20074;-69
2022/09/25 02:11:02;;;;;;;17.27;9.55;;;10.70;99.90;;;;;;5076579;28;20063;-67
2022/09/25 02:13:37;;;;;;;19.08;8.50;;;10.70;99.90;;;;;;5077342;28;20056;-67
2022/09/25 02:16:09;;;;;;;11.88;8.50;;;10.70;99.90;;;;;;5077325;28;20103;-67
2022/09/25 02:21:34;;;;;;;22.60;8.85;;;10.60;99.90;;;;;;5077344;28;20384;-67
2022/09/25 02:24:19;;;;;;;14.95;9.48;;;10.60;99.90;;;;;;5077194;28;20017;-67
2022/09/25 02:26:45;;;;;;;12.82;8.63;;;10.50;99.90;;;;;;5077410;28;20427;-67
2022/09/25 02:29:11;;;;;;;14.25;8.63;;;10.50;99.90;;;;;;5077299;28;20057;-67
2022/09/25 02:31:52;;;;;;;22.27;10.50;;;10.40;99.90;;;;;;5076480;28;20361;-68
2022/09/25 02:34:19;;;;;;;19.45;10.45;;;10.40;99.90;;;;;;5076900;28;20024;-68
2022/09/25 02:36:45;;;;;;;19.50;11.27;;;10.40;99.90;;;;;;5076997;28;20025;-68
2022/09/25 02:39:14;;;;;;;18.40;8.93;;;10.30;99.90;;;;;;5077085;28;20023;-68
2022/09/25 02:41:52;;;;;;;15.10;10.10;;;10.30;99.90;;;;;;5076754;28;20040;-68
2022/09/25 02:44:42;;;;;;;12.63;8.48;;;10.20;99.90;;;;;;5076707;28;20029;-68
2022/09/25 02:47:23;;;;;;;17.33;9.90;;;10.10;99.90;;;;;;5076668;28;20489;-68
2022/09/25 02:49:58;;;;;;;21.73;12.43;;;10.00;99.90;;;;;;5076664;28;20020;-68
2022/09/25 02:52:38;;;;;;;31.67;12.13;;;9.90;99.90;;;;;;5076867;28;20052;-68
2022/09/25 02:55:11;;;;;;;16.38;9.90;;;10.00;99.90;;;;;;5101530;22;20094;-72
2022/09/25 02:57:45;;;;;;;19.83;11.35;;;9.90;99.90;;;;;;5037023;28;20029;-72
2022/09/25 03:00:12;;;;;;;16.98;10.75;;;9.80;99.90;;;;;;5036323;28;20060;-72
2022/09/25 03:02:39;;;;;;;12.93;10.32;;;9.70;99.90;;;;;;5036917;28;20072;-72
2022/09/25 03:05:08;;;;;;;15.27;9.35;;;9.60;99.90;;;;;;5036540;28;20032;-72
2022/09/25 03:08:36;;;;;;;17.05;10.25;;;9.50;99.90;;;;;;5036507;28;20060;-72
2022/09/25 03:10:21;;;;;;;19.38;13.30;;;9.50;99.90;;;;;;5036445;28;20030;-72
2022/09/25 03:12:47;;;;;;;23.77;13.02;;;9.50;99.90;;;;;;5036463;28;20017;-72
2022/09/25 03:15:13;;;;;;;20.27;11.60;;;9.60;99.90;;;;;;5035833;28;20083;-72
2022/09/25 03:17:38;;;;;;;18.30;12.45;;;9.60;99.90;;;;;;5036355;28;20030;-72
2022/09/25 03:20:05;;;;;;;18.13;12.43;;;9.60;99.90;;;;;;5035974;28;20018;-72
2022/09/25 03:22:31;;;;;;;24.08;12.90;;;9.60;99.90;;;;;;5036277;28;20412;-72
2022/09/25 03:24:57;;;;;;;16.70;10.90;;;9.60;99.90;;;;;;5036012;28;20041;-72
2022/09/25 03:27:24;;;;;;;16.00;10.90;;;9.60;99.90;;;;;;5036585;28;20030;-72
2022/09/25 03:29:49;;;;;;;25.17;14.32;;;9.50;99.90;;;;;;5036630;28;20426;-72
2022/09/25 03:32:15;;;;;;;27.38;14.18;;;9.50;99.90;;;;;;5037765;28;20022;-72
2022/09/25 03:34:40;;;;;;;37.63;18.40;;;9.50;99.90;;;;;;5037449;28;20033;-72
2022/09/25 03:37:06;;;;;;;27.50;15.77;;;9.50;99.90;;;;;;5036200;28;20021;-72
2022/09/25 03:39:31;;;;;;;40.17;20.05;;;9.50;99.90;;;;;;5035933;28;20022;-72
2022/09/25 03:41:57;;;;;;;27.27;15.93;;;9.50;99.90;;;;;;5036201;28;20026;-72
2022/09/25 03:44:22;;;;;;;23.60;15.95;;;9.40;99.90;;;;;;5035301;28;20025;-72
2022/09/25 03:46:48;;;;;;;37.40;18.55;;;9.40;99.90;;;;;;5035844;28;20033;-72
2022/09/25 03:49:13;;;;;;;28.08;16.50;;;9.40;99.90;;;;;;5035785;28;20029;-72
2022/09/25 03:51:40;;;;;;;23.40;14.55;;;9.40;99.90;;;;;;5036002;28;20025;-72
2022/09/25 03:54:06;;;;;;;26.60;16.58;;;9.30;99.90;;;;;;5032568;28;20084;-72
2022/09/25 03:56:32;;;;;;;28.67;15.80;;;9.30;99.90;;;;;;5035386;28;20030;-72
2022/09/25 03:58:58;;;;;;;32.70;16.77;;;9.30;99.90;;;;;;5035201;28;20099;-72
2022/09/25 04:01:26;;;;;;;23.70;14.93;;;9.30;99.90;;;;;;5035571;28;20461;-72
2022/09/25 04:03:51;;;;;;;29.17;15.73;;;9.20;99.90;;;;;;5035577;28;20021;-72
2022/09/25 04:06:21;;;;;;;31.95;17.38;;;9.10;99.90;;;;;;5035657;28;20374;-72
2022/09/25 04:08:47;;;;;;;32.13;18.27;;;9.10;99.90;;;;;;5034738;28;20033;-72
2022/09/25 04:11:14;;;;;;;38.47;18.10;;;9.10;99.90;;;;;;5034739;28;20104;-72
2022/09/25 04:13:40;;;;;;;25.73;17.70;;;9.10;99.90;;;;;;5035570;28;20108;-72
2022/09/25 04:16:07;;;;;;;39.53;19.73;;;9.10;99.90;;;;;;5035263;28;20434;-72
2022/09/25 04:18:33;;;;;;;42.65;23.40;;;9.10;99.90;;;;;;5035220;28;20018;-72
2022/09/25 04:21:03;;;;;;;41.22;23.77;;;9.20;99.90;;;;;;5035443;28;20029;-72
2022/09/25 04:23:29;;;;;;;109.50;25.95;;;9.30;99.90;;;;;;5035402;28;20052;-72
2022/09/25 04:25:55;;;;;;;168.88;29.67;;;9.30;99.90;;;;;;5034629;28;20072;-72
2022/09/25 04:28:24;;;;;;;31.38;21.73;;;9.40;99.90;;;;;;5035337;28;20037;-72
2022/09/25 04:30:50;;;;;;;53.95;25.52;;;9.50;99.90;;;;;;5035240;28;20477;-72
2022/09/25 04:36:02;;;;;;;92.07;26.02;;;9.50;99.90;;;;;;5034565;28;20109;-72
2022/09/25 04:38:31;;;;;;;32.85;22.60;;;9.40;99.90;;;;;;5034841;28;20100;-72
2022/09/25 04:40:58;;;;;;;71.13;24.45;;;9.40;99.90;;;;;;5035063;28;20022;-72
2022/09/25 04:43:23;;;;;;;42.53;24.80;;;9.40;99.90;;;;;;5035109;28;20355;-72
2022/09/25 04:45:50;;;;;;;38.92;23.90;;;9.40;99.90;;;;;;5028594;28;20032;-72
2022/09/25 04:48:16;;;;;;;50.65;22.40;;;9.40;99.90;;;;;;5017457;28;20121;-72
2022/09/25 04:50:49;;;;;;;33.50;23.60;;;9.40;99.90;;;;;;5014506;28;20525;-72
2022/09/25 04:53:15;;;;;;;31.77;21.30;;;9.40;99.90;;;;;;5015113;28;20045;-72
2022/09/25 04:55:40;;;;;;;73.13;31.15;;;9.40;99.90;;;;;;5017121;28;20453;-72
2022/09/25 04:58:06;;;;;;;121.18;31.38;;;9.40;99.90;;;;;;5014791;28;20022;-72
2022/09/25 05:00:32;;;;;;;59.53;30.83;;;9.50;99.90;;;;;;5015649;28;20022;-72
2022/09/25 05:02:57;;;;;;;84.07;31.00;;;9.50;99.90;;;;;;5034469;28;20022;-72
2022/09/25 05:05:27;;;;;;;59.80;29.52;;;9.40;99.90;;;;;;5027010;28;20487;-72
2022/09/25 05:07:57;;;;;;;98.93;29.65;;;9.40;99.90;;;;;;5028527;28;20423;-72
2022/09/25 05:10:29;;;;;;;73.25;37.38;;;9.40;99.90;;;;;;5013880;28;20030;-72
2022/09/25 05:12:59;;;;;;;80.03;34.28;;;9.40;99.90;;;;;;5014760;28;20381;-72
2022/09/25 05:15:26;;;;;;;163.10;28.92;;;9.50;99.90;;;;;;5014322;28;20026;-72
2022/09/25 05:18:06;;;;;;;125.35;28.83;;;9.40;99.90;;;;;;5034058;28;20077;-72
2022/09/25 05:20:33;;;;;;;119.57;34.58;;;9.50;99.90;;;;;;5033888;28;20028;-72
2022/09/25 05:23:00;;;;;;;61.22;28.10;;;9.40;99.90;;;;;;5034077;28;20116;-72
2022/09/25 05:25:25;;;;;;;66.53;27.02;;;9.50;99.90;;;;;;5032707;28;20479;-72
2022/09/25 05:27:54;;;;;;;173.70;26.13;;;9.50;99.90;;;;;;5018065;28;20113;-72
2022/09/25 05:30:20;;;;;;;83.88;25.88;;;9.50;99.90;;;;;;5014273;28;20040;-72
2022/09/25 05:32:48;;;;;;;124.40;30.45;;;9.50;99.90;;;;;;5014201;28;20025;-72
2022/09/25 05:35:15;;;;;;;165.43;37.85;;;9.50;99.90;;;;;;5013520;28;20028;-72
2022/09/25 05:37:41;;;;;;;63.28;31.33;;;9.50;99.90;;;;;;5015728;28;20026;-72
2022/09/25 05:40:07;;;;;;;54.90;30.30;;;9.50;99.90;;;;;;5014380;28;20045;-72
2022/09/25 05:42:33;;;;;;;98.78;38.65;;;9.50;99.90;;;;;;5013766;28;20033;-72
2022/09/25 05:44:59;;;;;;;52.00;32.45;;;9.60;99.90;;;;;;5013899;28;20018;-72
2022/09/25 05:47:24;;;;;;;142.70;34.85;;;9.60;99.90;;;;;;5014060;28;20033;-72
2022/09/25 05:49:50;;;;;;;54.78;30.30;;;9.70;99.90;;;;;;5029834;28;20073;-72
2022/09/25 05:52:15;;;;;;;52.13;26.38;;;9.70;99.90;;;;;;5013784;28;20080;-72
2022/09/25 05:54:41;;;;;;;44.10;25.83;;;9.80;99.90;;;;;;5013660;28;20092;-72
2022/09/25 05:57:06;;;;;;;63.08;23.88;;;9.80;99.90;;;;;;5014793;28;20048;-72
2022/09/25 05:59:33;;;;;;;91.15;25.38;;;9.80;99.90;;;;;;5024115;28;20108;-72
2022/09/25 06:01:59;;;;;;;38.45;21.40;;;9.80;99.90;;;;;;5033796;28;20026;-72
2022/09/25 06:04:25;;;;;;;53.30;26.38;;;9.80;99.90;;;;;;5033387;28;20377;-72
2022/09/25 06:06:51;;;;;;;47.13;28.52;;;9.90;99.90;;;;;;5032924;28;20059;-72
2022/09/25 06:09:17;;;;;;;81.93;34.58;;;9.90;99.90;;;;;;5033711;28;20076;-72
2022/09/25 06:11:46;;;;;;;39.72;24.45;;;10.00;99.90;;;;;;5033742;28;20397;-72
2022/09/25 06:14:12;;;;;;;54.22;21.60;;;10.00;99.90;;;;;;5033336;28;20025;-72
2022/09/25 06:16:38;;;;;;;37.83;24.50;;;9.90;99.90;;;;;;5033061;28;20057;-72
2022/09/25 06:19:03;;;;;;;31.60;20.00;;;10.00;99.90;;;;;;5033267;28;20057;-72
2022/09/25 06:21:29;;;;;;;50.40;22.23;;;10.00;99.90;;;;;;5022937;28;20022;-72
2022/09/25 06:23:54;;;;;;;26.08;19.25;;;9.90;99.90;;;;;;5013658;28;20022;-72
2022/09/25 06:26:20;;;;;;;54.58;28.17;;;9.90;99.90;;;;;;5013728;28;20034;-72
2022/09/25 06:28:46;;;;;;;51.85;24.30;;;9.90;99.90;;;;;;5028230;28;20474;-72
2022/09/25 06:31:11;;;;;;;36.00;19.20;;;9.90;99.90;;;;;;5013461;28;20037;-72
2022/09/25 06:33:37;;;;;;;44.17;21.00;;;9.90;99.90;;;;;;5013578;28;20036;-74
2022/09/25 06:36:04;;;;;;;37.95;21.45;;;9.90;99.90;;;;;;5013344;28;20081;-73
2022/09/25 06:38:32;;;;;;;37.40;19.05;;;10.00;99.90;;;;;;5013467;28;20034;-73
2022/09/25 06:40:58;;;;;;;32.35;16.45;;;10.00;99.90;;;;;;5012952;28;20018;-72
2022/09/25 06:43:24;;;;;;;27.35;16.38;;;10.10;99.90;;;;;;5013652;28;20033;-72
2022/09/25 06:45:50;;;;;;;56.15;16.15;;;10.10;99.90;;;;;;5013226;28;20036;-72
2022/09/25 06:48:16;;;;;;;71.00;14.73;;;10.20;99.90;;;;;;5012433;28;20444;-72
2022/09/25 06:50:46;;;;;;;64.18;15.88;;;10.10;99.90;;;;;;5012130;28;20026;-73
2022/09/25 06:53:13;;;;;;;32.50;16.73;;;10.10;99.90;;;;;;5011759;28;20381;-72
2022/09/25 06:55:39;;;;;;;24.08;11.60;;;10.10;99.90;;;;;;5011690;28;20030;-72
2022/09/25 06:58:07;;;;;;;36.50;14.40;;;10.20;99.90;;;;;;5017244;28;20026;-72
2022/09/25 07:00:33;;;;;;;90.78;15.75;;;10.30;99.90;;;;;;5016910;28;20022;-72
2022/09/25 07:05:46;;;;;;;33.65;11.40;;;10.40;99.90;;;;;;5016574;28;20049;-72
2022/09/25 07:08:16;;;;;;;74.85;11.85;;;10.40;99.90;;;;;;5017079;28;20382;-72
2022/09/25 07:10:49;;;;;;;15.93;10.10;;;10.50;99.90;;;;;;5016946;28;20033;-72
2022/09/25 07:13:16;;;;;;;15.13;10.30;;;10.60;99.90;;;;;;5016718;28;20029;-72
2022/09/25 07:15:42;;;;;;;81.82;14.40;;;10.70;99.90;;;;;;5016527;28;20291;-72
2022/09/25 07:18:08;;;;;;;14.35;11.00;;;10.80;99.90;;;;;;5016257;28;20041;-72
2022/09/25 07:20:33;;;;;;;11.40;10.18;;;10.70;99.90;;;;;;5016523;28;20026;-72
2022/09/25 07:23:02;;;;;;;11.52;9.77;;;10.70;99.90;;;;;;5016531;28;20421;-72
2022/09/25 07:25:38;;;;;;;105.00;15.85;;;10.80;99.90;;;;;;5016353;28;20022;-73
2022/09/25 07:28:13;;;;;;;62.58;13.60;;;10.80;99.90;;;;;;5014128;28;20378;-73
2022/09/25 07:31:18;;;;;;;53.45;13.23;;;10.80;99.90;;;;;;5015420;28;20021;-73
2022/09/25 07:36:40;;;;;;;79.75;27.27;;;10.90;99.90;;;;;;5015644;28;20034;-72
2022/09/25 07:39:06;;;;;;;52.38;23.25;;;11.10;99.90;;;;;;5016229;28;20022;-73
2022/09/25 07:41:31;;;;;;;65.03;21.20;;;11.10;99.90;;;;;;5016527;28;20359;-72
2022/09/25 07:43:58;;;;;;;65.60;29.13;;;11.20;99.90;;;;;;5016455;28;20029;-72
2022/09/25 07:46:24;;;;;;;48.65;29.55;;;11.20;99.90;;;;;;5019899;28;20025;-72
2022/09/25 07:48:50;;;;;;;89.03;41.17;;;11.10;99.90;;;;;;5026947;28;20493;-72
2022/09/25 07:51:17;;;;;;;57.05;32.70;;;11.00;99.90;;;;;;5035764;28;20041;-72
2022/09/25 07:53:44;;;;;;;53.20;13.73;;;11.00;99.90;;;;;;5036098;28;20112;-72
2022/09/25 07:56:11;;;;;;;27.67;16.88;;;11.10;99.90;;;;;;5035375;28;20112;-72
2022/09/25 07:58:37;;;;;;;24.15;16.80;;;11.10;99.90;;;;;;5035854;28;20458;-72
2022/09/25 08:01:05;;;;;;;24.05;12.40;;;11.20;99.90;;;;;;5035074;28;20014;-72
2022/09/25 08:03:31;;;;;;;17.92;10.82;;;11.20;99.90;;;;;;5035520;28;20018;-72
2022/09/25 08:06:04;;;;;;;32.60;19.70;;;11.30;99.90;;;;;;5035331;28;20029;-72
2022/09/25 08:08:31;;;;;;;12.13;10.18;;;11.40;99.90;;;;;;5035023;28;20100;-72
2022/09/25 08:11:01;;;;;;;11.57;9.70;;;11.50;99.90;;;;;;5035859;28;20040;-71
2022/09/25 08:13:27;;;;;;;13.18;9.13;;;11.80;99.90;;;;;;5034863;28;20022;-72
2022/09/25 08:15:53;;;;;;;20.70;15.65;;;11.90;99.90;;;;;;5035356;28;20037;-72
2022/09/25 08:18:19;;;;;;;22.67;12.38;;;11.90;99.90;;;;;;5035558;28;20022;-72
2022/09/25 08:20:45;;;;;;;16.13;8.82;;;12.00;99.90;;;;;;5035252;28;20026;-71
2022/09/25 08:23:10;;;;;;;12.15;8.60;;;12.20;99.90;;;;;;5036259;28;20035;-72
2022/09/25 08:25:36;;;;;;;14.65;8.80;;;12.40;99.90;;;;;;5036122;28;20025;-72
2022/09/25 08:28:02;;;;;;;10.82;8.57;;;12.70;99.90;;;;;;5033333;28;20547;-72
2022/09/25 08:30:28;;;;;;;13.27;7.50;;;12.90;99.90;;;;;;5015246;28;20038;-71
2022/09/25 08:32:54;;;;;;;12.82;6.55;;;13.00;99.90;;;;;;5024412;28;20029;-71
2022/09/25 08:35:20;;;;;;;11.02;6.55;;;12.80;99.90;;;;;;5034664;28;20029;-72
2022/09/25 08:37:47;;;;;;;12.95;6.50;;;12.80;99.90;;;;;;5033505;28;20014;-72
2022/09/25 08:40:18;;;;;;;13.30;5.40;;;12.90;99.90;;;;;;5035124;28;20033;-72
2022/09/25 08:42:46;;;;;;;12.70;5.80;;;13.10;99.90;;;;;;5035000;28;20109;-72
2022/09/25 08:49:05;;;;;;;13.63;4.57;;;13.50;99.90;;;;;;5034219;28;20516;-72
2022/09/25 08:51:37;;;;;;;11.90;4.20;;;13.80;99.90;;;;;;5015470;28;20073;-72
2022/09/25 08:54:04;;;;;;;17.42;4.57;;;13.90;99.90;;;;;;5014765;28;20553;-72
2022/09/25 08:56:32;;;;;;;13.07;3.38;;;14.20;99.90;;;;;;5015055;28;20034;-70
2022/09/25 08:59:29;;;;;;;9.85;3.28;;;14.30;99.90;;;;;;5014103;28;20108;-70
2022/09/25 09:02:11;;;;;;;10.50;3.30;;;14.40;99.90;;;;;;5012948;28;20382;-71
2022/09/25 09:04:57;;;;;;;14.50;3.55;;;14.40;99.90;;;;;;5014974;28;20413;-72
2022/09/25 09:07:36;;;;;;;13.55;3.75;;;14.50;99.90;;;;;;5014512;28;20033;-72
2022/09/25 09:10:34;;;;;;;12.95;3.35;;;14.50;99.90;;;;;;5014029;28;20022;-72
2022/09/25 09:13:40;;;;;;;11.18;3.42;;;14.70;99.90;;;;;;5029990;28;20473;-72
2022/09/25 09:16:08;;;;;;;7.85;2.58;;;14.80;99.90;;;;;;5028463;28;20366;-72
2022/09/25 09:18:38;;;;;;;11.52;2.78;;;15.00;99.90;;;;;;5013961;28;20022;-72
2022/09/25 09:21:25;;;;;;;5.63;2.53;;;15.20;99.90;;;;;;5013812;28;20046;-72
2022/09/25 09:23:54;;;;;;;11.13;2.95;;;15.40;99.90;;;;;;5014152;28;20037;-72
2022/09/25 09:26:23;;;;;;;11.13;2.35;;;15.50;99.90;;;;;;5013932;28;20105;-71
2022/09/25 09:28:57;;;;;;;9.55;1.77;;;15.60;99.90;;;;;;5014112;28;20029;-71
2022/09/25 09:31:41;;;;;;;9.50;2.50;;;15.50;99.90;;;;;;5015135;28;20026;-70
2022/09/25 09:34:25;;;;;;;;;;;15.40;99.90;;;;;;5031469;28;20100;-71
2022/09/25 09:37:30;;;;;;;6.75;2.03;;;15.60;99.90;;;;;;5014993;28;19968;-71
2022/09/25 09:40:15;;;;;;;6.78;1.90;;;15.80;99.90;;;;;;4990935;28;20022;-71
2022/09/25 09:42:55;;;;;;;9.00;1.85;;;16.10;99.90;;;;;;5013869;28;20108;-70
2022/09/25 09:45:45;;;;;;;3.65;1.80;;;16.30;99.90;;;;;;5012909;28;20076;-70
2022/09/25 09:48:27;;;;;;;14.20;2.03;;;16.50;99.90;;;;;;5013821;28;20034;-70
2022/09/25 09:51:03;;;;;;;6.68;1.70;;;16.70;99.90;;;;;;5013936;28;20022;-70
2022/09/25 09:53:43;;;;;;;7.80;1.58;;;16.60;99.90;;;;;;5014025;28;20501;-71
2022/09/25 09:56:16;;;;;;;11.45;2.60;;;16.20;99.90;;;;;;5014504;28;20088;-70
2022/09/25 09:58:58;;;;;;;6.82;1.40;;;15.70;99.90;;;;;;5033513;28;20021;-70
2022/09/25 10:01:27;;;;;;;11.98;1.52;;;15.60;99.90;;;;;;5029384;28;20014;-70
2022/09/25 10:04:04;;;;;;;9.07;1.55;;;16.00;99.90;;;;;;5013723;28;20072;-71
2022/09/25 10:06:33;;;;;;;7.78;1.25;;;16.40;99.90;;;;;;5013602;28;20517;-71
2022/09/25 10:08:59;;;;;;;15.05;2.35;;;16.90;99.90;;;;;;5012981;28;20033;-70
2022/09/25 10:11:25;;;;;;;7.32;1.83;;;17.20;99.90;;;;;;5013536;28;20370;-70
2022/09/25 10:13:51;;;;;;;7.15;1.58;;;17.30;99.90;;;;;;5013709;28;20456;-71
2022/09/25 10:16:23;;;;;;;7.70;1.92;;;17.00;99.90;;;;;;5020306;28;20021;-70
2022/09/25 10:19:02;;;;;;;7.13;1.70;;;16.60;99.90;;;;;;5032158;28;20063;-70
2022/09/25 10:22:02;;;;;;;7.57;1.92;;;16.20;99.90;;;;;;5032878;28;20449;-71
2022/09/25 10:24:52;;;;;;;9.20;1.70;;;15.90;99.90;;;;;;5030223;28;20044;-69
2022/09/25 10:27:28;;;;;;;10.98;1.60;;;16.40;99.90;;;;;;5033253;28;20032;-69
2022/09/25 10:30:10;;;;;;;5.10;1.17;;;16.90;99.90;;;;;;5033505;28;20034;-69
2022/09/25 10:33:05;;;;;;;8.75;1.40;;;17.40;99.90;;;;;;5036045;28;20021;-69
2022/09/25 10:35:37;;;;;;;7.78;1.77;;;17.30;99.90;;;;;;5026898;28;20022;-69
2022/09/25 10:38:04;;;;;;;8.48;1.40;;;17.10;99.90;;;;;;5017785;28;20377;-69
2022/09/25 10:40:35;;;;;;;7.72;2.33;;;16.90;99.90;;;;;;5017218;28;20450;-69
2022/09/25 10:43:19;;;;;;;9.13;1.70;;;16.90;99.90;;;;;;5016920;28;20101;-69
2022/09/25 10:45:48;;;;;;;9.35;1.60;;;17.20;99.90;;;;;;5017140;28;20393;-69
2022/09/25 10:51:20;;;;;;;6.95;1.35;;;17.10;99.90;;;;;;5018469;28;20080;-71
2022/09/25 10:53:46;;;;;;;9.65;1.30;;;16.60;99.90;;;;;;5017443;28;20032;-71
2022/09/25 10:56:26;;;;;;;4.57;1.20;;;16.10;99.90;;;;;;5031892;28;20030;-70
2022/09/25 10:58:58;;;;;;;5.40;1.20;;;15.70;99.90;;;;;;5024664;28;20091;-71
2022/09/25 11:01:36;;;;;;;8.60;2.65;;;15.50;99.90;;;;;;5016760;28;20080;-70
2022/09/25 11:04:16;;;;;;;9.52;1.42;;;15.60;99.90;;;;;;5033178;28;20505;-71
2022/09/25 11:06:51;;;;;;;15.63;1.88;;;15.90;99.90;;;;;;5026648;28;20028;-70
2022/09/25 11:09:21;;;;;;;8.85;1.50;;;16.50;99.90;;;;;;5017314;28;20022;-71
2022/09/25 11:11:48;;;;;;;11.32;1.92;;;17.10;99.90;;;;;;5027413;28;20048;-70
2022/09/25 11:14:32;;;;;;;12.55;1.55;;;17.80;99.90;;;;;;5024828;28;20029;-71
2022/09/25 11:17:00;;;;;;;12.05;1.30;;;18.50;99.90;;;;;;5015888;28;20022;-70
2022/09/25 11:19:29;;;;;;;7.25;1.52;;;18.90;99.90;;;;;;5016469;28;20036;-70
2022/09/25 11:22:06;;;;;;;7.60;1.33;;;18.80;99.90;;;;;;5024117;28;20041;-70
2022/09/25 11:25:00;;;;;;;6.63;1.30;;;18.40;99.90;;;;;;5024835;28;20025;-70
2022/09/25 11:27:31;;;;;;;15.55;1.65;;;18.10;99.90;;;;;;5036329;28;20040;-71
2022/09/25 11:30:03;;;;;;;5.88;1.60;;;17.50;99.90;;;;;;5025686;28;20030;-71
2022/09/25 11:32:51;;;;;;;9.57;1.33;;;17.40;99.90;;;;;;5016208;28;20033;-70
2022/09/25 11:35:38;;;;;;;10.77;2.17;;;17.70;99.90;;;;;;5016035;28;20026;-70
2022/09/25 11:38:12;;;;;;;12.93;1.70;;;18.10;99.90;;;;;;5016436;28;20044;-69
2022/09/25 11:43:56;;;;;;;10.75;1.58;;;19.10;99.90;;;;;;5029596;28;20088;-69
2022/09/25 11:46:38;;;;;;;7.60;1.75;;;18.60;99.90;;;;;;4991290;28;20117;-69
2022/09/25 11:49:26;;;;;;;6.43;1.40;;;18.60;99.90;;;;;;5017734;28;20018;-69
2022/09/25 11:52:38;;;;;;;3.67;1.38;;;19.30;99.90;;;;;;5032603;28;20013;-69
2022/09/25 11:55:35;;;;;;;11.38;1.42;;;19.30;99.90;;;;;;5035441;28;20064;-69
2022/09/25 11:58:04;;;;;;;8.80;1.25;;;19.50;99.90;;;;;;5035441;28;20036;-69
2022/09/25 12:00:53;;;;;;;9.18;1.15;;;20.20;99.90;;;;;;5035102;28;20060;-69
2022/09/25 12:03:40;;;;;;;6.35;0.90;;;20.90;99.90;;;;;;5035367;28;20029;-69
2022/09/25 12:06:26;;;;;;;11.35;1.85;;;21.30;99.90;;;;;;5050211;28;20083;-68
2022/09/25 12:09:16;;;;;;;5.93;1.42;;;21.20;99.90;;;;;;5031262;28;20502;-69
2022/09/25 12:12:16;;;;;;;9.35;2.33;;;20.70;99.90;;;;;;5015726;28;20063;-69
2022/09/25 12:15:03;;;;;;;8.70;2.30;;;20.00;99.90;;;;;;5004783;28;20436;-69
2022/09/25 12:17:57;;;;;;;9.60;1.55;;;20.00;99.90;;;;;;5015522;28;20061;-69
2022/09/25 12:20:44;;;;;;;7.00;1.33;;;20.30;99.90;;;;;;5015029;28;20426;-69
2022/09/25 12:23:31;;;;;;;5.57;1.00;;;19.30;99.90;;;;;;5015913;28;20033;-69
2022/09/25 12:26:27;;;;;;;6.15;1.30;;;18.80;99.90;;;;;;5015428;28;20382;-69
2022/09/25 12:28:58;;;;;;;10.30;1.48;;;19.80;99.90;;;;;;5014777;28;20533;-69
2022/09/25 12:31:38;;;;;;;8.40;1.10;;;20.80;99.90;;;;;;5015497;28;20034;-69
2022/09/25 12:34:36;;;;;;;8.05;1.63;;;21.30;99.90;;;;;;5015422;28;20414;-69
2022/09/25 12:37:20;;;;;;;7.20;1.17;;;20.10;99.90;;;;;;5034000;28;20057;-69
2022/09/25 12:39:54;;;;;;;9.18;2.08;;;18.50;99.90;;;;;;5035119;28;20053;-69
2022/09/25 12:42:34;;;;;;;8.48;1.02;;;17.50;99.90;;;;;;5020496;28;20034;-69
2022/09/25 12:45:24;;;;;;;7.13;1.02;;;17.20;99.90;;;;;;5015048;28;20045;-69
2022/09/25 12:48:00;;;;;;;7.28;1.00;;;18.40;99.90;;;;;;5017066;28;20036;-69
2022/09/25 12:50:29;;;;;;;10.50;1.17;;;19.90;99.90;;;;;;5027794;28;20480;-69
2022/09/25 12:53:05;;;;;;;9.05;1.35;;;20.70;99.90;;;;;;5024932;28;20018;-69
2022/09/25 12:55:40;;;;;;;10.60;1.80;;;20.40;99.90;;;;;;5014703;28;20083;-69
2022/09/25 12:58:30;;;;;;;11.07;1.50;;;19.10;99.90;;;;;;5014709;28;20076;-69
2022/09/25 13:01:32;;;;;;;12.20;1.60;;;17.90;99.90;;;;;;5014807;28;20083;-69
2022/09/25 13:04:37;;;;;;;7.18;1.30;;;17.90;99.90;;;;;;5004762;28;20398;-69
2022/09/25 13:07:14;;;;;;;4.50;1.60;;;17.60;99.90;;;;;;5014115;28;20136;-70
2022/09/25 13:09:44;;;;;;;11.65;2.08;;;17.10;99.90;;;;;;5014791;28;20026;-69
2022/09/25 13:12:34;;;;;;;5.50;1.40;;;16.90;99.90;;;;;;5014550;28;20418;-69
2022/09/25 13:15:07;;;;;;;5.55;1.10;;;16.50;99.90;;;;;;5010246;28;20034;-69
2022/09/25 13:17:33;;;;;;;13.30;1.65;;;16.20;99.90;;;;;;5024294;28;20025;-69
2022/09/25 13:20:27;;;;;;;10.82;1.35;;;16.00;99.90;;;;;;5024624;28;20377;-69
2022/09/25 13:22:58;;;;;;;9.95;2.00;;;16.10;99.90;;;;;;5028596;28;20029;-69
2022/09/25 13:25:24;;;;;;;10.60;2.28;;;16.20;99.90;;;;;;5017894;28;20490;-69
2022/09/25 13:27:52;;;;;;;10.45;1.75;;;16.20;99.90;;;;;;5013352;28;20040;-69